createdAt,value
2018-09-02T00:01:29.462Z,8.35
2018-09-02T00:04:06.747Z,7.10
2018-09-02T00:06:44.196Z,9.30
2018-09-02T00:09:22.377Z,9.35
2018-09-02T00:11:59.157Z,7.50
2018-09-02T00:14:39.123Z,9.97
2018-09-02T00:17:17.024Z,8.17
2018-09-02T00:20:05.775Z,7.03
2018-09-02T00:22:43.794Z,8.57
2018-09-02T00:25:20.441Z,7.63
2018-09-02T00:27:55.406Z,6.07
2018-09-02T00:30:32.912Z,7.77
2018-09-02T00:33:11.843Z,5.87
2018-09-02T00:35:50.994Z,9.53
2018-09-02T00:38:29.722Z,6.47
2018-09-02T00:41:06.713Z,8.43
2018-09-02T00:43:36.089Z,7.47
2018-09-02T00:46:06.541Z,8.45
2018-09-02T00:48:35.936Z,9.80
2018-09-02T00:51:07.045Z,9.98
2018-09-02T00:53:36.477Z,9.07
2018-09-02T00:56:06.242Z,7.45
2018-09-02T00:58:35.605Z,7.63
2018-09-02T01:01:06.311Z,8.53
2018-09-02T01:03:35.669Z,9.13
2018-09-02T01:06:06.289Z,6.00
2018-09-02T01:08:35.696Z,9.30
2018-09-02T01:11:06.366Z,6.77
2018-09-02T01:13:35.788Z,8.37
2018-09-02T01:16:06.399Z,6.70
2018-09-02T01:18:35.758Z,8.30
2018-09-02T01:21:07.733Z,7.17
2018-09-02T01:23:37.316Z,8.53
2018-09-02T01:26:06.704Z,8.47
2018-09-02T01:28:36.416Z,7.80
2018-09-02T01:31:06.641Z,7.30
2018-09-02T01:33:36.110Z,8.97
2018-09-02T01:36:06.851Z,8.40
2018-09-02T01:38:37.314Z,7.07
2018-09-02T01:41:07.272Z,7.50
2018-09-02T01:43:37.623Z,6.80
2018-09-02T01:46:07.193Z,9.20
2018-09-02T01:48:38.503Z,7.80
2018-09-02T01:51:07.889Z,9.13
2018-09-02T01:53:37.261Z,7.90
2018-09-02T01:56:06.644Z,7.57
2018-09-02T01:58:44.449Z,9.70
2018-09-02T02:01:14.741Z,7.53
2018-09-02T02:03:44.334Z,6.67
2018-09-02T02:06:14.030Z,8.83
2018-09-02T02:08:43.749Z,8.70
2018-09-02T02:11:13.220Z,7.90
2018-09-02T02:13:42.819Z,10.97
2018-09-02T02:16:12.434Z,8.40
2018-09-02T02:18:42.044Z,7.50
2018-09-02T02:21:11.453Z,9.83
2018-09-02T02:23:40.921Z,8.63
2018-09-02T02:26:10.381Z,12.23
2018-09-02T02:28:39.762Z,8.83
2018-09-02T02:31:09.116Z,7.60
2018-09-02T02:33:38.473Z,8.80
2018-09-02T02:36:07.954Z,7.97
2018-09-02T02:38:38.502Z,8.50
2018-09-02T02:41:08.088Z,6.83
2018-09-02T02:43:37.516Z,9.43
2018-09-02T02:46:06.918Z,7.27
2018-09-02T02:48:36.301Z,9.90
2018-09-02T02:51:06.805Z,9.83
2018-09-02T02:53:36.499Z,7.47
2018-09-02T02:56:06.656Z,6.25
2018-09-02T02:58:36.023Z,5.90
2018-09-02T03:01:06.048Z,9.33
2018-09-02T03:03:35.443Z,9.43
2018-09-02T03:06:06.301Z,5.87
2018-09-02T03:08:35.676Z,9.63
2018-09-02T03:11:06.520Z,8.53
2018-09-02T03:13:35.889Z,7.13
2018-09-02T03:16:08.612Z,6.70
2018-09-02T03:18:39.174Z,7.77
2018-09-02T03:21:08.519Z,8.73
2018-09-02T03:23:37.954Z,7.43
2018-09-02T03:26:07.329Z,8.33
2018-09-02T03:28:36.661Z,9.03
2018-09-02T03:31:06.979Z,6.53
2018-09-02T03:33:36.485Z,7.40
2018-09-02T03:36:06.463Z,10.25
2018-09-02T03:38:35.873Z,8.83
2018-09-02T03:41:06.972Z,9.53
2018-09-02T03:43:36.493Z,8.60
2018-09-02T03:46:06.025Z,7.17
2018-09-02T03:48:35.529Z,7.03
2018-09-02T03:51:06.138Z,6.83
2018-09-02T03:53:35.572Z,5.47
2018-09-02T03:56:06.228Z,4.60
2018-09-02T03:58:35.594Z,4.27
2018-09-02T04:01:06.625Z,4.10
2018-09-02T04:03:36.290Z,5.63
2018-09-02T04:06:06.757Z,4.95
2018-09-02T04:08:36.189Z,4.30
2018-09-02T04:11:06.190Z,4.78
2018-09-02T04:13:35.606Z,4.70
2018-09-02T04:16:06.200Z,5.00
2018-09-02T04:18:35.611Z,3.83
2018-09-02T04:21:06.452Z,3.60
2018-09-02T04:23:35.889Z,4.23
2018-09-02T04:26:06.354Z,4.95
2018-09-02T04:28:35.899Z,5.67
2018-09-02T04:31:06.444Z,5.83
2018-09-02T04:33:35.886Z,4.23
2018-09-02T04:36:06.178Z,6.08
2018-09-02T04:38:35.539Z,4.77
2018-09-02T04:41:06.489Z,4.73
2018-09-02T04:43:35.851Z,4.67
2018-09-02T04:46:06.790Z,4.30
2018-09-02T04:48:36.145Z,3.92
2018-09-02T04:51:06.888Z,3.40
2018-09-02T04:53:37.202Z,3.57
2018-09-02T04:56:06.537Z,3.10
2018-09-02T04:58:35.918Z,4.27
2018-09-02T05:01:06.086Z,2.85
2018-09-02T05:03:35.590Z,4.37
2018-09-02T05:06:04.989Z,3.23
2018-09-02T05:08:34.412Z,3.53
2018-09-02T05:11:03.865Z,3.60
2018-09-02T05:13:33.283Z,3.80
2018-09-02T05:16:02.799Z,5.00
2018-09-02T05:18:32.294Z,4.00
2018-09-02T05:21:02.003Z,4.77
2018-09-02T05:23:31.401Z,5.97
2018-09-02T05:26:01.410Z,4.20
2018-09-02T05:28:30.941Z,9.13
2018-09-02T05:31:00.423Z,8.48
2018-09-02T05:33:30.292Z,8.53
2018-09-02T05:35:59.783Z,8.07
2018-09-02T05:38:29.215Z,7.23
2018-09-02T05:40:58.596Z,10.20
2018-09-02T05:43:29.493Z,9.73
2018-09-02T05:45:58.891Z,8.03
2018-09-02T05:48:28.362Z,10.67
2018-09-02T05:50:57.849Z,12.20
2018-09-02T05:53:27.418Z,13.17
2018-09-02T05:55:57.338Z,11.13
2018-09-02T05:58:26.772Z,17.17
2018-09-02T06:00:56.186Z,15.33
2018-09-02T06:03:25.733Z,14.63
2018-09-02T06:05:55.160Z,16.40
2018-09-02T06:08:24.545Z,16.30
2018-09-02T06:10:53.965Z,17.40
2018-09-02T06:13:23.361Z,19.27
2018-09-02T06:15:52.807Z,20.00
2018-09-02T06:18:22.277Z,20.60
2018-09-02T06:20:51.676Z,17.77
2018-09-02T06:23:21.119Z,18.73
2018-09-02T06:25:51.732Z,18.03
2018-09-02T06:28:21.216Z,17.77
2018-09-02T06:30:50.851Z,14.50
2018-09-02T06:33:20.370Z,19.30
2018-09-02T06:35:49.867Z,17.23
2018-09-02T06:38:23.064Z,15.87
2018-09-02T06:40:52.454Z,20.00
2018-09-02T06:43:21.894Z,21.50
2018-09-02T06:45:51.389Z,19.50
2018-09-02T06:48:21.399Z,23.27
2018-09-02T06:50:50.991Z,22.57
2018-09-02T06:53:20.404Z,23.38
2018-09-02T06:55:49.820Z,25.90
2018-09-02T06:58:19.294Z,27.95
2018-09-02T07:00:48.758Z,32.47
2018-09-02T07:03:18.442Z,29.97
2018-09-02T07:05:48.608Z,26.07
2018-09-02T07:08:18.033Z,29.77
2018-09-02T07:10:47.549Z,26.17
2018-09-02T07:13:17.006Z,27.23
2018-09-02T07:15:46.514Z,33.77
2018-09-02T07:18:15.969Z,26.10
2018-09-02T07:20:46.003Z,28.90
2018-09-02T07:23:15.347Z,29.33
2018-09-02T07:25:44.876Z,34.77
2018-09-02T07:28:14.485Z,25.37
2018-09-02T07:30:43.990Z,25.53
2018-09-02T07:33:13.786Z,25.70
2018-09-02T07:35:43.519Z,26.73
2018-09-02T07:38:12.988Z,29.90
2018-09-02T07:40:42.607Z,24.00
2018-09-02T07:43:12.173Z,32.80
2018-09-02T07:45:41.749Z,31.60
2018-09-02T07:48:11.164Z,39.05
2018-09-02T07:50:40.647Z,33.37
2018-09-02T07:53:10.355Z,34.70
2018-09-02T07:55:39.844Z,26.47
2018-09-02T07:58:09.402Z,27.07
2018-09-02T08:00:38.993Z,23.33
2018-09-02T08:03:09.605Z,30.47
2018-09-02T08:05:39.125Z,26.00
2018-09-02T08:08:08.579Z,24.60
2018-09-02T08:10:38.009Z,23.07
2018-09-02T08:13:07.494Z,27.23
2018-09-02T08:15:36.953Z,24.00
2018-09-02T08:18:06.597Z,22.63
2018-09-02T08:20:36.203Z,21.33
2018-09-02T08:23:07.272Z,17.62
2018-09-02T08:25:36.651Z,19.13
2018-09-02T08:28:07.233Z,18.70
2018-09-02T08:30:38.399Z,14.90
2018-09-02T08:33:07.923Z,11.07
2018-09-02T08:35:37.348Z,11.83
2018-09-02T08:38:06.922Z,9.83
2018-09-02T08:40:36.463Z,8.00
2018-09-02T08:43:06.848Z,8.88
2018-09-02T08:45:36.274Z,8.80
2018-09-02T08:48:07.479Z,14.00
2018-09-02T08:50:37.351Z,8.60
2018-09-02T08:53:06.750Z,7.90
2018-09-02T08:55:36.291Z,6.90
2018-09-02T08:58:06.894Z,6.60
2018-09-02T09:00:36.274Z,6.23
2018-09-02T09:03:06.173Z,6.63
2018-09-02T09:05:35.601Z,6.90
2018-09-02T09:08:06.555Z,6.43
2018-09-02T09:10:36.156Z,5.10
2018-09-02T09:13:08.246Z,5.75
2018-09-02T09:15:37.682Z,6.43
2018-09-02T09:18:07.235Z,8.47
2018-09-02T09:20:36.734Z,6.07
2018-09-02T09:23:07.327Z,5.97
2018-09-02T09:25:36.825Z,7.40
2018-09-02T09:28:06.783Z,6.60
2018-09-02T09:30:36.869Z,7.97
2018-09-02T09:33:07.473Z,6.37
2018-09-02T09:35:37.710Z,6.30
2018-09-02T09:38:07.241Z,7.33
2018-09-02T09:40:36.761Z,8.10
2018-09-02T09:43:06.428Z,5.57
2018-09-02T09:45:35.798Z,8.20
2018-09-02T09:48:06.562Z,6.93
2018-09-02T09:50:37.008Z,7.37
2018-09-02T09:53:06.739Z,7.40
2018-09-02T09:55:36.229Z,7.13
2018-09-02T09:58:06.290Z,7.20
2018-09-02T10:00:40.881Z,6.03
2018-09-02T10:03:10.305Z,6.87
2018-09-02T10:05:39.785Z,8.10
2018-09-02T10:08:09.229Z,5.93
2018-09-02T10:10:38.666Z,4.20
2018-09-02T10:13:08.217Z,4.03
2018-09-02T10:15:38.428Z,4.80
2018-09-02T10:18:08.373Z,5.40
2018-09-02T10:20:37.918Z,6.33
2018-09-02T10:23:07.450Z,4.93
2018-09-02T10:25:36.846Z,5.10
2018-09-02T10:28:06.856Z,5.92
2018-09-02T10:30:36.314Z,4.90
2018-09-02T10:33:06.549Z,6.10
2018-09-02T10:35:35.998Z,5.60
2018-09-02T10:38:06.317Z,5.50
2018-09-02T10:40:35.804Z,6.83
2018-09-02T10:43:06.240Z,4.15
2018-09-02T10:45:35.718Z,5.03
2018-09-02T10:48:06.481Z,3.90
2018-09-02T10:50:36.082Z,3.67
2018-09-02T10:53:06.407Z,5.45
2018-09-02T10:55:35.845Z,5.13
2018-09-02T10:58:06.613Z,5.87
2018-09-02T11:00:36.150Z,3.80
2018-09-02T11:03:06.190Z,5.07
2018-09-02T11:05:35.683Z,3.43
2018-09-02T11:08:06.310Z,4.80
2018-09-02T11:10:35.702Z,6.57
2018-09-02T11:13:06.899Z,3.87
2018-09-02T11:15:36.714Z,3.93
2018-09-02T11:18:06.794Z,3.33
2018-09-02T11:20:36.206Z,5.17
2018-09-02T11:23:06.165Z,3.00
2018-09-02T11:25:36.893Z,4.10
2018-09-02T11:28:06.792Z,3.47
2018-09-02T11:30:36.224Z,4.63
2018-09-02T11:33:06.340Z,3.83
2018-09-02T11:35:36.552Z,2.93
2018-09-02T11:38:06.472Z,19.07
2018-09-02T11:40:40.369Z,4.53
2018-09-02T11:43:09.817Z,8.13
2018-09-02T11:45:39.982Z,2.70
2018-09-02T11:48:09.359Z,3.67
2018-09-02T11:50:38.974Z,3.23
2018-09-02T11:53:08.509Z,2.97
2018-09-02T11:55:37.901Z,2.90
2018-09-02T11:58:07.572Z,4.33
2018-09-02T12:00:36.998Z,3.07
2018-09-02T12:03:06.429Z,3.72
2018-09-02T12:05:35.826Z,3.47
2018-09-02T12:08:06.614Z,2.63
2018-09-02T12:10:36.085Z,4.10
2018-09-02T12:13:06.297Z,3.10
2018-09-02T12:15:35.766Z,4.50
2018-09-02T12:18:06.456Z,3.60
2018-09-02T12:20:35.921Z,3.03
2018-09-02T12:23:09.718Z,4.30
2018-09-02T12:25:39.843Z,2.40
2018-09-02T12:28:09.635Z,2.50
2018-09-02T12:30:39.303Z,3.37
2018-09-02T12:33:09.071Z,2.67
2018-09-02T12:35:38.649Z,2.93
2018-09-02T12:38:08.194Z,3.47
2018-09-02T12:40:37.773Z,2.72
2018-09-02T12:43:07.364Z,2.37
2018-09-02T12:45:36.978Z,2.25
2018-09-02T12:48:06.581Z,3.15
2018-09-02T12:50:36.116Z,2.47
2018-09-02T12:53:07.169Z,2.42
2018-09-02T12:55:36.964Z,2.40
2018-09-02T12:58:06.424Z,3.08
2018-09-02T13:00:35.995Z,3.10
2018-09-02T13:03:06.608Z,2.50
2018-09-02T13:05:41.965Z,2.60
2018-09-02T13:08:11.524Z,2.30
2018-09-02T13:10:42.508Z,2.43
2018-09-02T13:13:11.978Z,3.05
2018-09-02T13:15:41.772Z,2.75
2018-09-02T13:18:11.345Z,2.50
2018-09-02T13:20:41.017Z,2.40
2018-09-02T13:23:10.588Z,2.27
2018-09-02T13:25:41.860Z,2.80
2018-09-02T13:28:11.345Z,3.30
2018-09-02T13:30:40.854Z,3.53
2018-09-02T13:33:10.340Z,3.27
2018-09-02T13:35:39.872Z,3.00
2018-09-02T13:38:09.397Z,2.80
2018-09-02T13:40:38.860Z,4.13
2018-09-02T13:43:08.495Z,3.07
2018-09-02T13:45:38.063Z,3.30
2018-09-02T13:48:07.494Z,2.73
2018-09-02T13:50:36.993Z,2.53
2018-09-02T13:53:07.368Z,3.37
2018-09-02T13:55:37.001Z,3.30
2018-09-02T13:58:08.547Z,3.10
2018-09-02T14:00:38.752Z,4.90
2018-09-02T14:03:08.330Z,2.60
2018-09-02T14:05:38.042Z,2.83
2018-09-02T14:08:08.386Z,2.47
2018-09-02T14:10:37.851Z,4.53
2018-09-02T14:13:07.298Z,2.70
2018-09-02T14:15:36.721Z,2.83
2018-09-02T14:18:06.257Z,3.33
2018-09-02T14:20:35.860Z,2.62
2018-09-02T14:23:06.648Z,2.72
2018-09-02T14:25:36.182Z,2.67
2018-09-02T14:28:06.692Z,2.40
2018-09-02T14:30:37.088Z,4.15
2018-09-02T14:33:06.554Z,2.77
2018-09-02T14:35:36.075Z,6.65
2018-09-02T14:38:06.347Z,2.65
2018-09-02T14:40:35.746Z,2.60
2018-09-02T14:43:06.529Z,2.73
2018-09-02T14:45:36.188Z,2.63
2018-09-02T14:48:06.851Z,2.70
2018-09-02T14:50:36.461Z,2.57
2018-09-02T14:53:06.245Z,3.55
2018-09-02T14:55:35.635Z,2.63
2018-09-02T14:58:06.414Z,2.83
2018-09-02T15:00:36.408Z,3.70
2018-09-02T15:03:06.474Z,2.87
2018-09-02T15:05:36.410Z,4.42
2018-09-02T15:08:07.711Z,3.92
2018-09-02T15:10:37.356Z,3.47
2018-09-02T15:13:06.786Z,2.70
2018-09-02T15:15:36.406Z,4.30
2018-09-02T15:18:06.204Z,3.37
2018-09-02T15:20:35.614Z,3.07
2018-09-02T15:23:06.704Z,2.70
2018-09-02T15:25:36.057Z,2.72
2018-09-02T15:28:06.515Z,2.65
2018-09-02T15:30:35.960Z,3.03
2018-09-02T15:33:06.469Z,3.05
2018-09-02T15:35:35.842Z,2.77
2018-09-02T15:38:06.490Z,3.07
2018-09-02T15:40:36.078Z,3.00
2018-09-02T15:43:06.266Z,2.70
2018-09-02T15:45:35.850Z,3.75
2018-09-02T15:48:06.427Z,4.20
2018-09-02T15:50:35.921Z,3.65
2018-09-02T15:53:06.966Z,4.66
2018-09-02T15:55:36.425Z,3.65
2018-09-02T15:58:08.626Z,4.72
2018-09-02T16:00:40.858Z,6.78
2018-09-02T16:03:10.719Z,2.40
2018-09-02T16:05:40.249Z,2.70
2018-09-02T16:08:09.737Z,3.00
2018-09-02T16:10:39.819Z,3.22
2018-09-02T16:13:09.184Z,3.65
2018-09-02T16:15:38.626Z,3.58
2018-09-02T16:18:08.008Z,3.65
2018-09-02T16:20:37.485Z,4.30
2018-09-02T16:23:06.970Z,3.37
2018-09-02T16:25:36.347Z,4.43
2018-09-02T16:28:06.833Z,3.55
2018-09-02T16:30:36.302Z,4.10
2018-09-02T16:33:08.437Z,3.54
2018-09-02T16:35:37.872Z,4.30
2018-09-02T16:38:07.413Z,4.10
2018-09-02T16:40:36.858Z,3.47
2018-09-02T16:43:06.822Z,3.17
2018-09-02T16:45:36.267Z,3.58
2018-09-02T16:48:06.294Z,3.25
2018-09-02T16:50:35.722Z,3.02
2018-09-02T16:53:06.293Z,5.18
2018-09-02T16:55:35.655Z,3.37
2018-09-02T16:58:07.382Z,3.15
2018-09-02T17:00:37.176Z,3.50
2018-09-02T17:03:06.611Z,3.27
2018-09-02T17:05:36.191Z,3.42
2018-09-02T17:08:06.619Z,4.47
2018-09-02T17:10:36.136Z,4.73
2018-09-02T17:13:08.493Z,4.78
2018-09-02T17:15:41.176Z,3.87
2018-09-02T17:18:10.775Z,4.33
2018-09-02T17:20:44.582Z,4.13
2018-09-02T17:23:14.549Z,4.55
2018-09-02T17:25:45.316Z,4.03
2018-09-02T17:28:15.026Z,4.42
2018-09-02T17:30:44.513Z,3.87
2018-09-02T17:33:14.767Z,3.58
2018-09-02T17:35:44.199Z,4.10
2018-09-02T17:38:15.557Z,4.30
2018-09-02T17:40:45.164Z,4.37
2018-09-02T17:43:14.544Z,3.67
2018-09-02T17:45:45.765Z,4.00
2018-09-02T17:48:15.416Z,5.00
2018-09-02T17:50:44.964Z,5.57
2018-09-02T17:53:14.804Z,4.83
2018-09-02T17:55:44.857Z,5.37
2018-09-02T17:58:14.373Z,5.12
2018-09-02T18:00:50.054Z,5.30
2018-09-02T18:03:20.361Z,5.72
2018-09-02T18:05:49.941Z,7.97
2018-09-02T18:08:20.773Z,7.00
2018-09-02T18:10:50.341Z,7.90
2018-09-02T18:13:20.035Z,6.25
2018-09-02T18:15:49.599Z,6.77
2018-09-02T18:18:19.316Z,6.00
2018-09-02T18:20:51.070Z,7.73
2018-09-02T18:23:20.486Z,6.37
2018-09-02T18:25:50.928Z,6.97
2018-09-02T18:28:23.272Z,6.47
2018-09-02T18:30:54.045Z,7.90
2018-09-02T18:33:24.861Z,8.83
2018-09-02T18:35:57.595Z,8.37
2018-09-02T18:38:27.500Z,7.93
2018-09-02T18:40:56.950Z,6.70
2018-09-02T18:43:26.455Z,8.97
2018-09-02T18:45:55.966Z,8.63
2018-09-02T18:48:25.424Z,9.67
2018-09-02T18:50:54.822Z,9.20
2018-09-02T18:53:24.388Z,9.70
2018-09-02T18:55:55.217Z,9.17
2018-09-02T18:58:24.842Z,9.37
2018-09-02T19:00:54.361Z,10.07
2018-09-02T19:03:24.264Z,8.58
2018-09-02T19:05:53.778Z,9.40
2018-09-02T19:08:26.916Z,11.27
2018-09-02T19:10:56.325Z,8.43
2018-09-02T19:13:25.715Z,12.43
2018-09-02T19:15:55.651Z,8.47
2018-09-02T19:18:38.453Z,8.77
2018-09-02T19:21:07.858Z,10.90
2018-09-02T19:23:37.369Z,9.80
2018-09-02T19:26:06.817Z,9.00
2018-09-02T19:28:36.165Z,9.97
2018-09-02T19:31:06.185Z,9.98
2018-09-02T19:33:35.970Z,11.17
2018-09-02T19:36:07.572Z,11.04
2018-09-02T19:38:37.157Z,10.33
2018-09-02T19:41:08.727Z,10.80
2018-09-02T19:43:38.299Z,11.27
2018-09-02T19:46:07.859Z,8.90
2018-09-02T19:48:37.340Z,9.53
2018-09-02T19:51:07.221Z,9.63
2018-09-02T19:53:37.431Z,8.80
2018-09-02T19:56:06.947Z,10.20
2018-09-02T19:58:36.436Z,9.53
2018-09-02T20:01:07.200Z,11.05
2018-09-02T20:03:36.834Z,7.87
2018-09-02T20:06:06.310Z,8.80
2018-09-02T20:08:35.732Z,7.57
2018-09-02T20:11:06.448Z,6.87
2018-09-02T20:13:35.935Z,6.33
2018-09-02T20:16:06.552Z,8.76
2018-09-02T20:18:36.171Z,8.23
2018-09-02T20:21:06.338Z,10.07
2018-09-02T20:23:35.756Z,9.07
2018-09-02T20:26:06.362Z,7.50
2018-09-02T20:28:35.811Z,8.57
2018-09-02T20:31:08.454Z,9.33
2018-09-02T20:33:37.869Z,9.67
2018-09-02T20:36:07.322Z,9.50
2018-09-02T20:38:37.126Z,9.70
2018-09-02T20:41:06.681Z,6.73
2018-09-02T20:43:36.884Z,9.43
2018-09-02T20:46:06.618Z,7.17
2018-09-02T20:48:36.958Z,6.93
2018-09-02T20:51:07.246Z,8.13
2018-09-02T20:53:36.843Z,9.17
2018-09-02T20:56:07.006Z,10.03
2018-09-02T20:58:36.782Z,8.20
2018-09-02T21:01:06.857Z,10.03
2018-09-02T21:03:36.354Z,8.43
2018-09-02T21:06:06.785Z,10.53
2018-09-02T21:08:36.255Z,8.40
2018-09-02T21:11:06.911Z,11.47
2018-09-02T21:13:36.273Z,10.80
2018-09-02T21:16:06.486Z,8.43
2018-09-02T21:18:37.150Z,8.33
2018-09-02T21:21:06.530Z,7.67
2018-09-02T21:23:35.998Z,9.40
2018-09-02T21:26:06.409Z,10.00
2018-09-02T21:28:35.948Z,7.77
2018-09-02T21:31:08.638Z,6.75
2018-09-02T21:33:38.049Z,7.83
2018-09-02T21:36:07.439Z,9.33
2018-09-02T21:38:37.404Z,9.10
2018-09-02T21:41:06.913Z,9.07
2018-09-02T21:43:39.318Z,8.50
2018-09-02T21:46:09.149Z,9.47
2018-09-02T21:48:38.744Z,9.37
2018-09-02T21:51:08.844Z,9.00
2018-09-02T21:53:38.220Z,8.70
2018-09-02T21:56:07.621Z,13.07
2018-09-02T21:58:37.052Z,12.68
2018-09-02T22:01:07.606Z,8.73
2018-09-02T22:03:36.982Z,11.07
2018-09-02T22:06:06.747Z,13.17
2018-09-02T22:08:37.641Z,10.70
2018-09-02T22:11:07.238Z,14.70
2018-09-02T22:13:36.698Z,8.07
2018-09-02T22:16:06.421Z,9.77
2018-09-02T22:18:35.849Z,11.97
2018-09-02T22:21:06.533Z,9.70
2018-09-02T22:23:36.167Z,11.53
2018-09-02T22:26:06.203Z,11.28
2018-09-02T22:28:35.611Z,10.77
2018-09-02T22:31:06.281Z,13.87
2018-09-02T22:33:35.748Z,10.40
2018-09-02T22:36:06.418Z,10.65
2018-09-02T22:38:35.805Z,11.27
2018-09-02T22:41:06.521Z,9.83
2018-09-02T22:43:35.927Z,8.70
2018-09-02T22:46:06.560Z,9.40
2018-09-02T22:48:35.955Z,10.83
2018-09-02T22:51:06.724Z,10.23
2018-09-02T22:53:36.139Z,11.27
2018-09-02T22:56:06.451Z,10.55
2018-09-02T22:58:36.693Z,11.73
2018-09-02T23:01:06.815Z,10.48
2018-09-02T23:03:36.221Z,10.07
2018-09-02T23:06:06.356Z,12.80
2018-09-02T23:08:35.764Z,15.23
2018-09-02T23:11:06.075Z,12.95
2018-09-02T23:13:35.446Z,11.57
2018-09-02T23:16:06.088Z,11.60
2018-09-02T23:18:35.506Z,9.83
2018-09-02T23:21:14.161Z,11.60
2018-09-02T23:23:53.528Z,11.00
2018-09-02T23:26:30.903Z,12.43
2018-09-02T23:29:08.485Z,12.20
2018-09-02T23:31:46.513Z,11.47
2018-09-02T23:34:23.258Z,13.58
2018-09-02T23:36:59.937Z,12.33
2018-09-02T23:39:39.765Z,13.43
2018-09-02T23:42:18.012Z,11.40
2018-09-02T23:44:57.751Z,13.63
2018-09-02T23:47:35.837Z,10.20
2018-09-02T23:50:13.487Z,13.57
2018-09-02T23:52:47.107Z,10.77
2018-09-02T23:55:20.932Z,12.50
2018-09-02T23:57:59.750Z,10.17
